createdAt,value
2022-08-12T00:00:09.929Z,97251.88
2022-08-12T00:02:56.014Z,97259.00
2022-08-12T00:06:00.437Z,97254.72
2022-08-12T00:08:53.021Z,97247.53
2022-08-12T00:11:39.814Z,97242.91
2022-08-12T00:14:26.299Z,97241.97
2022-08-12T00:17:12.175Z,97241.63
2022-08-12T00:19:58.174Z,97241.38
2022-08-12T00:22:44.220Z,97243.59
2022-08-12T00:26:19.042Z,97244.66
2022-08-12T00:28:36.824Z,97236.81
2022-08-12T00:31:23.073Z,97236.56
2022-08-12T00:34:09.059Z,97230.78
2022-08-12T00:37:00.896Z,97234.00
2022-08-12T00:39:52.216Z,97231.75
2022-08-12T00:42:23.737Z,97238.34
2022-08-12T00:44:52.549Z,97234.00
2022-08-12T00:47:24.793Z,97230.41
2022-08-12T00:49:56.000Z,97234.72
2022-08-12T00:52:25.918Z,97232.38
2022-08-12T00:54:58.025Z,97235.06
2022-08-12T00:57:32.367Z,97229.63
2022-08-12T01:00:03.405Z,97222.50
2022-08-12T01:02:35.171Z,97230.94
2022-08-12T01:05:26.026Z,97234.94
2022-08-12T01:08:12.965Z,97231.31
2022-08-12T01:11:03.821Z,97228.13
2022-08-12T01:13:40.076Z,97228.13
2022-08-12T01:16:10.714Z,97228.63
2022-08-12T01:18:42.142Z,97228.63
2022-08-12T01:21:20.553Z,97237.47
2022-08-12T01:24:29.893Z,97232.88
2022-08-12T01:26:57.037Z,97232.34
2022-08-12T01:29:32.584Z,97231.53
2022-08-12T01:32:08.696Z,97231.53
2022-08-12T01:34:40.650Z,97225.94
2022-08-12T01:37:11.431Z,97221.78
2022-08-12T01:40:31.677Z,97227.56
2022-08-12T01:42:48.325Z,97225.34
2022-08-12T01:45:24.434Z,97225.06
2022-08-12T01:48:12.942Z,97219.13
2022-08-12T01:51:06.449Z,97220.38
2022-08-12T01:53:57.347Z,97212.91
2022-08-12T01:56:29.796Z,97215.03
2022-08-12T01:59:22.113Z,97206.16
2022-08-12T02:01:55.303Z,97204.53
2022-08-12T02:04:50.475Z,97204.53
2022-08-12T02:07:55.910Z,97197.16
2022-08-12T02:11:03.240Z,97201.59
2022-08-12T02:14:24.524Z,97201.44
2022-08-12T02:17:16.248Z,97210.22
2022-08-12T02:20:02.629Z,97208.56
2022-08-12T02:22:38.536Z,97203.91
2022-08-12T02:25:14.560Z,97197.25
2022-08-12T02:27:47.037Z,97199.66
2022-08-12T02:30:19.569Z,97204.88
2022-08-12T02:32:52.892Z,97202.66
2022-08-12T02:35:23.243Z,97200.16
2022-08-12T02:37:53.870Z,97197.81
2022-08-12T02:40:24.560Z,97198.91
2022-08-12T02:42:59.661Z,97197.53
2022-08-12T02:45:38.353Z,97185.69
2022-08-12T02:48:15.591Z,97187.91
2022-08-12T02:50:51.438Z,97181.94
2022-08-12T02:53:20.992Z,97180.00
2022-08-12T02:55:50.301Z,97187.13
2022-08-12T02:58:20.134Z,97181.94
2022-08-12T03:01:03.469Z,97183.56
2022-08-12T03:03:35.388Z,97183.88
2022-08-12T03:06:08.285Z,97177.63
2022-08-12T03:08:42.288Z,97184.22
2022-08-12T03:11:22.638Z,97178.91
2022-08-12T03:13:56.194Z,97179.31
2022-08-12T03:16:25.503Z,97177.94
2022-08-12T03:18:56.179Z,97169.81
2022-08-12T03:21:52.179Z,97177.97
2022-08-12T03:24:18.593Z,97173.84
2022-08-12T03:26:49.673Z,97174.44
2022-08-12T03:29:20.870Z,97176.66
2022-08-12T03:31:50.206Z,97174.94
2022-08-12T03:34:29.845Z,97170.47
2022-08-12T03:37:02.808Z,97178.97
2022-08-12T03:39:41.804Z,97174.63
2022-08-12T03:42:28.240Z,97176.56
2022-08-12T03:45:32.041Z,97168.56
2022-08-12T03:48:25.547Z,97180.38
2022-08-12T03:51:14.573Z,97189.31
2022-08-12T03:54:01.938Z,97187.47
2022-08-12T03:56:48.020Z,97184.13
2022-08-12T03:59:33.923Z,97181.97
2022-08-12T04:02:02.220Z,97181.06
2022-08-12T04:04:35.176Z,97182.66
2022-08-12T04:07:08.912Z,97180.13
2022-08-12T04:09:40.383Z,97181.28
2022-08-12T04:12:32.359Z,97171.75
2022-08-12T04:15:02.767Z,97178.03
2022-08-12T04:17:32.872Z,97181.13
2022-08-12T04:20:01.509Z,97172.38
2022-08-12T04:22:31.702Z,97168.25
2022-08-12T04:25:02.470Z,97162.63
2022-08-12T04:27:32.459Z,97173.47
2022-08-12T04:30:16.475Z,97167.91
2022-08-12T04:32:52.234Z,97185.00
2022-08-12T04:35:22.485Z,97180.75
2022-08-12T04:37:59.908Z,97178.88
2022-08-12T04:40:36.426Z,97181.44
2022-08-12T04:43:05.826Z,97181.03
2022-08-12T04:45:38.030Z,97184.25
2022-08-12T04:48:07.494Z,97192.34
2022-08-12T04:50:37.290Z,97185.75
2022-08-12T04:53:09.351Z,97172.97
2022-08-12T04:55:40.026Z,97175.88
2022-08-12T04:58:09.321Z,97176.44
2022-08-12T05:00:38.976Z,97175.97
2022-08-12T05:03:08.532Z,97175.53
2022-08-12T05:05:40.724Z,97167.56
2022-08-12T05:08:15.816Z,97173.75
2022-08-12T05:10:46.351Z,97184.38
2022-08-12T05:13:19.015Z,97175.56
2022-08-12T05:16:04.694Z,97175.88
2022-08-12T05:18:35.455Z,97178.88
2022-08-12T05:21:09.678Z,97190.53
2022-08-12T05:23:40.684Z,97189.56
2022-08-12T05:26:09.063Z,97192.25
2022-08-12T05:28:38.088Z,97194.41
2022-08-12T05:31:06.978Z,97192.31
2022-08-12T05:33:38.441Z,97196.44
2022-08-12T05:36:12.612Z,97203.41
2022-08-12T05:38:58.796Z,97204.81
2022-08-12T05:41:30.407Z,97206.72
2022-08-12T05:44:03.009Z,97203.00
2022-08-12T05:46:33.237Z,97211.88
2022-08-12T05:49:02.257Z,97217.78
2022-08-12T05:51:40.099Z,97214.47
2022-08-12T05:54:12.330Z,97220.38
2022-08-12T05:56:41.522Z,97221.38
2022-08-12T05:59:13.981Z,97222.84
2022-08-12T06:02:09.172Z,97221.94
2022-08-12T06:04:34.570Z,97227.00
2022-08-12T06:07:59.710Z,97223.69
2022-08-12T06:09:57.641Z,97218.41
2022-08-12T06:12:26.324Z,97218.69
2022-08-12T06:14:55.702Z,97215.28
2022-08-12T06:17:24.040Z,97216.16
2022-08-12T06:20:28.138Z,97222.56
2022-08-12T06:22:40.939Z,97215.34
2022-08-12T06:25:18.490Z,97225.19
2022-08-12T06:28:07.926Z,97232.31
2022-08-12T06:30:38.987Z,97226.28
2022-08-12T06:33:24.766Z,97221.41
2022-08-12T06:35:57.569Z,97223.22
2022-08-12T06:38:30.301Z,97226.19
2022-08-12T06:41:19.064Z,97221.78
2022-08-12T06:44:05.455Z,97219.66
2022-08-12T06:46:36.814Z,97226.63
2022-08-12T06:49:06.865Z,97218.09
2022-08-12T06:51:35.349Z,97222.44
2022-08-12T06:54:04.260Z,97223.59
2022-08-12T06:59:23.449Z,97216.00
2022-08-12T07:01:52.155Z,97218.09
2022-08-12T07:04:38.228Z,97221.41
2022-08-12T07:07:09.741Z,97220.28
2022-08-12T07:10:04.681Z,97217.06
2022-08-12T07:12:28.955Z,97210.31
2022-08-12T07:14:58.265Z,97207.59
2022-08-12T07:17:36.588Z,97213.59
2022-08-12T07:20:09.923Z,97215.94
2022-08-12T07:22:39.761Z,97206.84
2022-08-12T07:25:26.270Z,97209.06
2022-08-12T07:27:57.837Z,97218.75
2022-08-12T07:30:26.572Z,97216.41
2022-08-12T07:32:58.615Z,97209.72
2022-08-12T07:35:31.374Z,97208.81
2022-08-12T07:38:02.628Z,97223.06
2022-08-12T07:40:31.302Z,97218.44
2022-08-12T07:43:00.952Z,97222.31
2022-08-12T07:45:29.292Z,97218.41
2022-08-12T07:47:57.632Z,97215.06
2022-08-12T07:50:26.675Z,97222.34
2022-08-12T07:52:55.073Z,97219.69
2022-08-12T07:55:23.444Z,97219.78
2022-08-12T07:57:57.973Z,97220.28
2022-08-12T08:00:30.945Z,97224.16
2022-08-12T08:02:59.913Z,97216.31
2022-08-12T08:05:33.103Z,97220.34
2022-08-12T08:08:02.570Z,97218.72
2022-08-12T08:10:33.746Z,97221.09
2022-08-12T08:13:05.257Z,97214.69
2022-08-12T08:18:27.457Z,97218.03
2022-08-12T08:20:57.672Z,97207.47
2022-08-12T08:23:41.453Z,97221.13
2022-08-12T08:26:10.372Z,97219.53
2022-08-12T08:28:38.653Z,97218.16
2022-08-12T08:31:08.413Z,97220.06
2022-08-12T08:34:01.466Z,97220.31
2022-08-12T08:36:25.084Z,97224.34
2022-08-12T08:38:58.059Z,97221.09
2022-08-12T08:42:17.368Z,97210.44
2022-08-12T08:44:36.402Z,97210.66
2022-08-12T08:47:07.563Z,97211.19
2022-08-12T08:49:37.137Z,97226.81
2022-08-12T08:52:07.675Z,97209.81
2022-08-12T08:54:37.792Z,97208.94
2022-08-12T08:57:09.940Z,97214.88
2022-08-12T08:59:38.262Z,97214.44
2022-08-12T09:02:08.679Z,97221.13
2022-08-12T09:05:12.799Z,97218.41
2022-08-12T09:10:30.441Z,97219.41
2022-08-12T09:13:29.159Z,97219.88
2022-08-12T09:16:14.882Z,97222.13
2022-08-12T09:18:44.826Z,97215.47
2022-08-12T09:21:13.921Z,97220.97
2022-08-12T09:24:00.491Z,97215.06
2022-08-12T09:30:10.470Z,97212.81
2022-08-12T09:32:29.489Z,97221.13
2022-08-12T09:34:59.967Z,97212.41
2022-08-12T09:37:28.557Z,97213.22
2022-08-12T09:41:02.491Z,97213.00
2022-08-12T09:43:25.220Z,97207.25
2022-08-12T09:46:06.798Z,97205.78
2022-08-12T09:48:44.611Z,97211.25
2022-08-12T09:51:37.721Z,97204.31
2022-08-12T09:54:34.613Z,97200.34
2022-08-12T09:57:00.739Z,97201.56
2022-08-12T10:00:16.370Z,97203.53
2022-08-12T10:02:45.432Z,97198.59
2022-08-12T10:05:13.264Z,97207.22
2022-08-12T10:07:43.754Z,97205.50
2022-08-12T10:10:24.091Z,97202.41
2022-08-12T10:13:34.706Z,97194.78
2022-08-12T10:16:05.838Z,97193.84
2022-08-12T10:18:51.549Z,97205.91
2022-08-12T10:21:24.194Z,97198.25
2022-08-12T10:24:09.298Z,97194.34
2022-08-12T10:26:57.204Z,97194.03
2022-08-12T10:30:37.385Z,97193.34
2022-08-12T10:32:45.078Z,97206.47
2022-08-12T10:35:16.489Z,97204.41
2022-08-12T10:38:34.639Z,97199.88
2022-08-12T10:40:58.591Z,97193.00
2022-08-12T10:43:54.877Z,97197.81
2022-08-12T10:46:31.074Z,97188.16
2022-08-12T10:49:06.861Z,97178.94
2022-08-12T10:52:32.578Z,97185.81
2022-08-12T10:54:41.313Z,97183.16
2022-08-12T10:57:18.265Z,97184.66
2022-08-12T11:00:35.274Z,97182.13
2022-08-12T11:04:32.103Z,97179.34
2022-08-12T11:07:05.632Z,97173.56
2022-08-12T11:08:42.169Z,97175.09
2022-08-12T11:11:16.846Z,97167.00
2022-08-12T11:13:48.926Z,97154.47
2022-08-12T11:16:19.645Z,97156.63
2022-08-12T11:18:55.476Z,97151.91
2022-08-12T11:21:56.105Z,97150.53
2022-08-12T11:24:29.976Z,97143.91
2022-08-12T11:27:01.362Z,97146.56
2022-08-12T11:30:01.845Z,97147.00
2022-08-12T11:32:20.137Z,97140.56
2022-08-12T11:34:53.001Z,97135.69
2022-08-12T11:37:26.534Z,97130.22
2022-08-12T11:42:39.612Z,97128.31
2022-08-12T11:45:16.890Z,97127.72
2022-08-12T11:47:45.830Z,97117.34
2022-08-12T11:50:19.091Z,97120.19
2022-08-12T11:52:55.256Z,97120.94
2022-08-12T11:55:27.551Z,97116.53
2022-08-12T11:58:19.862Z,97106.06
2022-08-12T12:03:40.418Z,97105.59
2022-08-12T12:06:17.032Z,97098.34
2022-08-12T12:08:51.104Z,97096.88
2022-08-12T12:11:22.092Z,97108.31
2022-08-12T12:14:08.125Z,97094.50
2022-08-12T12:16:48.127Z,97091.69
2022-08-12T12:19:19.407Z,97100.47
2022-08-12T12:21:49.523Z,97088.91
2022-08-12T12:24:21.317Z,97090.78
2022-08-12T12:27:00.311Z,97086.53
2022-08-12T12:30:17.771Z,97087.03
2022-08-12T12:32:29.574Z,97079.66
2022-08-12T12:35:13.070Z,97072.56
2022-08-12T12:38:03.966Z,97060.88
2022-08-12T12:40:39.746Z,97071.09
2022-08-12T12:43:09.225Z,97057.56
2022-08-12T12:45:39.512Z,97057.78
2022-08-12T12:48:17.288Z,97061.06
2022-08-12T12:51:09.352Z,97056.16
2022-08-12T12:54:06.411Z,97052.00
2022-08-12T12:56:33.894Z,97052.69
2022-08-12T12:59:06.060Z,97050.91
2022-08-12T13:01:41.809Z,97041.44
2022-08-12T13:04:14.444Z,97042.97
2022-08-12T13:06:43.051Z,97044.69
2022-08-12T13:09:13.521Z,97042.06
2022-08-12T13:11:44.571Z,97039.19
2022-08-12T13:14:29.483Z,97037.44
2022-08-12T13:17:02.349Z,97040.25
2022-08-12T13:19:43.438Z,97040.78
2022-08-12T13:22:19.967Z,97035.56
2022-08-12T13:24:54.785Z,97038.66
2022-08-12T13:27:35.737Z,97039.91
2022-08-12T13:30:11.375Z,97040.72
2022-08-12T13:32:42.534Z,97032.84
2022-08-12T13:35:19.730Z,97034.84
2022-08-12T13:38:02.500Z,97031.16
2022-08-12T13:40:33.833Z,97027.19
2022-08-12T13:43:06.300Z,97024.69
2022-08-12T13:45:36.663Z,97028.72
2022-08-12T13:48:07.220Z,97028.94
2022-08-12T13:50:40.433Z,97028.78
2022-08-12T13:53:23.960Z,97022.47
2022-08-12T13:55:59.647Z,97022.00
2022-08-12T13:58:34.760Z,97024.72
2022-08-12T14:01:06.319Z,97025.22
2022-08-12T14:03:50.476Z,97025.44
2022-08-12T14:06:26.062Z,97034.34
2022-08-12T14:08:59.722Z,97032.00
2022-08-12T14:11:32.215Z,97030.88
2022-08-12T14:14:04.260Z,97034.94
2022-08-12T14:16:48.758Z,97030.28
2022-08-12T14:19:24.165Z,97039.00
2022-08-12T14:22:01.091Z,97037.25
2022-08-12T14:24:41.171Z,97030.34
2022-08-12T14:27:11.323Z,97025.16
2022-08-12T14:30:04.315Z,97026.91
2022-08-12T14:32:35.293Z,97025.19
2022-08-12T14:35:06.532Z,97002.22
2022-08-12T14:37:56.782Z,97029.13
2022-08-12T14:40:29.131Z,97031.53
2022-08-12T14:42:59.285Z,97036.03
2022-08-12T14:45:45.030Z,97036.59
2022-08-12T14:48:19.674Z,97058.69
2022-08-12T14:51:02.776Z,97070.50
2022-08-12T14:54:49.855Z,97077.72
2022-08-12T14:59:56.281Z,97088.63
2022-08-12T15:02:26.531Z,97082.03
2022-08-12T15:04:59.120Z,97075.94
2022-08-12T15:07:33.764Z,97075.88
2022-08-12T15:10:25.366Z,97074.91
2022-08-12T15:13:07.504Z,97063.81
2022-08-12T15:15:45.651Z,97059.81
2022-08-12T15:18:21.373Z,97060.22
2022-08-12T15:20:52.284Z,97063.25
2022-08-12T15:23:24.202Z,97076.16
2022-08-12T15:26:03.592Z,97070.63
2022-08-12T15:28:36.980Z,97072.59
2022-08-12T15:31:21.407Z,97079.59
2022-08-12T15:33:57.440Z,97069.91
2022-08-12T15:36:54.404Z,97069.16
2022-08-12T15:39:16.703Z,97064.22
2022-08-12T15:41:50.062Z,97058.25
2022-08-12T15:44:38.109Z,97055.59
2022-08-12T15:47:09.623Z,97053.63
2022-08-12T15:49:54.214Z,97057.63
2022-08-12T15:52:30.675Z,97058.19
2022-08-12T15:55:06.317Z,97059.38
2022-08-12T15:57:53.830Z,97058.94
2022-08-12T16:00:33.164Z,97059.47
2022-08-12T16:03:05.315Z,97061.66
2022-08-12T16:06:11.487Z,97060.41
2022-08-12T16:08:27.376Z,97066.13
2022-08-12T16:10:56.881Z,97058.81
2022-08-12T16:13:34.838Z,97064.31
2022-08-12T16:16:22.922Z,97061.06
2022-08-12T16:18:58.603Z,97062.66
2022-08-12T16:21:50.674Z,97055.94
2022-08-12T16:24:18.666Z,97061.50
2022-08-12T16:26:51.444Z,97054.50
2022-08-12T16:29:52.548Z,97046.88
2022-08-12T16:32:24.142Z,97048.84
2022-08-12T16:34:55.549Z,97043.94
2022-08-12T16:37:32.383Z,97054.50
2022-08-12T16:40:04.911Z,97046.31
2022-08-12T16:42:39.127Z,97040.53
2022-08-12T16:45:14.137Z,97047.19
2022-08-12T16:47:58.169Z,97038.19
2022-08-12T16:50:31.092Z,97033.31
2022-08-12T16:53:03.307Z,97033.47
2022-08-12T16:55:41.749Z,97041.22
2022-08-12T16:58:28.566Z,97044.38
2022-08-12T17:01:02.317Z,97045.91
2022-08-12T17:03:35.244Z,97041.19
2022-08-12T17:06:06.438Z,97039.81
2022-08-12T17:08:35.572Z,97038.94
2022-08-12T17:11:08.527Z,97035.25
2022-08-12T17:13:53.073Z,97040.47
2022-08-12T17:16:24.768Z,97049.19
2022-08-12T17:19:03.257Z,97049.59
2022-08-12T17:21:40.170Z,97045.22
2022-08-12T17:24:15.272Z,97046.38
2022-08-12T17:26:49.266Z,97045.91
2022-08-12T17:29:24.163Z,97038.88
2022-08-12T17:32:14.489Z,97038.50
2022-08-12T17:35:02.256Z,97039.75
2022-08-12T17:37:34.027Z,97044.28
2022-08-12T17:40:15.986Z,97035.84
2022-08-12T17:42:48.229Z,97046.38
2022-08-12T17:45:19.581Z,97050.47
2022-08-12T17:48:04.773Z,97045.72
2022-08-12T17:50:39.775Z,97049.66
2022-08-12T17:53:10.885Z,97052.50
2022-08-12T17:55:48.094Z,97048.22
2022-08-12T17:58:36.974Z,97050.63
2022-08-12T18:01:11.032Z,97062.16
2022-08-12T18:04:04.912Z,97051.47
2022-08-12T18:06:36.099Z,97056.69
2022-08-12T18:09:09.683Z,97065.53
2022-08-12T18:12:05.036Z,97066.75
2022-08-12T18:14:38.277Z,97061.25
2022-08-12T18:17:12.165Z,97066.84
2022-08-12T18:20:07.040Z,97064.88
2022-08-12T18:22:34.250Z,97065.72
2022-08-12T18:25:13.727Z,97064.97
2022-08-12T18:28:16.680Z,97057.84
2022-08-12T18:30:53.249Z,97066.59
2022-08-12T18:33:25.658Z,97071.34
2022-08-12T18:35:57.025Z,97067.75
2022-08-12T18:38:27.863Z,97071.72
2022-08-12T18:41:22.472Z,97064.13
2022-08-12T18:44:00.710Z,97075.97
2022-08-12T18:46:47.201Z,97072.75
2022-08-12T18:49:21.649Z,97066.41
2022-08-12T18:52:03.993Z,97065.97
2022-08-12T18:54:36.378Z,97074.25
2022-08-12T18:57:19.928Z,97084.56
2022-08-12T19:00:06.802Z,97073.75
2022-08-12T19:02:39.786Z,97089.56
2022-08-12T19:05:11.914Z,97089.50
2022-08-12T19:07:59.988Z,97085.91
2022-08-12T19:10:31.940Z,97087.75
2022-08-12T19:13:23.923Z,97088.88
2022-08-12T19:15:57.736Z,97086.41
2022-08-12T19:18:29.764Z,97098.81
2022-08-12T19:21:06.447Z,97095.91
2022-08-12T19:23:41.981Z,97099.09
2022-08-12T19:26:12.746Z,97095.50
2022-08-12T19:28:43.035Z,97096.97
2022-08-12T19:31:58.421Z,97106.03
2022-08-12T19:37:27.032Z,97108.78
2022-08-12T19:40:09.104Z,97101.38
2022-08-12T19:43:00.954Z,97094.78
2022-08-12T19:45:43.472Z,97095.88
2022-08-12T19:48:19.960Z,97102.03
2022-08-12T19:50:52.520Z,97107.06
2022-08-12T19:53:23.887Z,97106.19
2022-08-12T19:55:57.391Z,97106.84
2022-08-12T19:58:26.978Z,97112.16
2022-08-12T20:00:56.077Z,97108.09
2022-08-12T20:03:40.591Z,97108.72
2022-08-12T20:06:15.553Z,97114.94
2022-08-12T20:08:48.761Z,97106.41
2022-08-12T20:12:11.678Z,97114.19
2022-08-12T20:14:18.936Z,97105.44
2022-08-12T20:16:53.014Z,97105.38
2022-08-12T20:19:52.770Z,97098.63
2022-08-12T20:22:24.270Z,97102.53
2022-08-12T20:25:01.390Z,97104.06
2022-08-12T20:28:04.006Z,97096.91
2022-08-12T20:30:52.710Z,97103.88
2022-08-12T20:33:18.447Z,97105.78
2022-08-12T20:36:06.442Z,97100.63
2022-08-12T20:38:40.383Z,97095.91
2022-08-12T20:41:17.636Z,97104.97
2022-08-12T20:43:51.793Z,97098.09
2022-08-12T20:46:21.354Z,97107.91
2022-08-12T20:48:55.247Z,97101.22
2022-08-12T20:51:28.152Z,97105.06
2022-08-12T20:54:16.709Z,97100.88
2022-08-12T20:56:47.165Z,97101.16
2022-08-12T20:59:20.078Z,97101.09
2022-08-12T21:01:54.220Z,97099.13
2022-08-12T21:04:43.688Z,97102.19
2022-08-12T21:07:14.331Z,97097.09
2022-08-12T21:09:49.078Z,97094.34
2022-08-12T21:12:28.482Z,97095.66
2022-08-12T21:15:23.079Z,97097.59
2022-08-12T21:18:11.872Z,97097.97
2022-08-12T21:20:54.721Z,97092.88
2022-08-12T21:23:23.863Z,97100.50
2022-08-12T21:25:56.230Z,97092.28
2022-08-12T21:28:27.447Z,97098.91
2022-08-12T21:32:34.484Z,97093.38
2022-08-12T21:34:07.331Z,97082.69
2022-08-12T21:36:48.151Z,97084.25
2022-08-12T21:39:21.137Z,97090.31
2022-08-12T21:41:52.943Z,97089.38
2022-08-12T21:45:43.453Z,97087.69
2022-08-12T21:47:20.871Z,97088.31
2022-08-12T21:50:06.124Z,97087.00
2022-08-12T21:52:40.419Z,97092.44
2022-08-12T21:55:17.693Z,97090.19
2022-08-12T21:57:53.502Z,97086.94
2022-08-12T22:00:32.989Z,97086.28
2022-08-12T22:04:02.280Z,97083.59
2022-08-12T22:06:30.383Z,97088.75
2022-08-12T22:09:16.850Z,97090.38
2022-08-12T22:11:56.003Z,97088.69
2022-08-12T22:14:28.267Z,97090.06
2022-08-12T22:17:00.644Z,97093.97
2022-08-12T22:19:33.805Z,97092.38
2022-08-12T22:22:05.304Z,97094.59
2022-08-12T22:24:34.517Z,97089.44
2022-08-12T22:27:18.277Z,97095.41
2022-08-12T22:30:16.528Z,97086.41
2022-08-12T22:32:49.699Z,97091.78
2022-08-12T22:35:55.765Z,97087.88
2022-08-12T22:38:23.793Z,97086.91
2022-08-12T22:40:55.541Z,97089.69
2022-08-12T22:43:59.247Z,97085.94
2022-08-12T22:46:53.163Z,97092.53
2022-08-12T22:49:36.597Z,97079.63
2022-08-12T22:52:13.918Z,97083.47
2022-08-12T22:54:59.950Z,97078.31
2022-08-12T22:57:49.031Z,97069.69
2022-08-12T23:00:27.176Z,97072.34
2022-08-12T23:03:00.510Z,97071.72
2022-08-12T23:05:57.110Z,97071.00
2022-08-12T23:08:29.942Z,97075.19
2022-08-12T23:11:00.697Z,97061.47
2022-08-12T23:13:54.899Z,97063.53
2022-08-12T23:16:30.943Z,97059.78
2022-08-12T23:19:11.059Z,97060.31
2022-08-12T23:22:03.567Z,97060.13
2022-08-12T23:24:37.152Z,97052.56
2022-08-12T23:27:44.156Z,97052.84
2022-08-12T23:30:18.692Z,97047.97
2022-08-12T23:32:54.519Z,97042.72
2022-08-12T23:35:45.866Z,97041.41
2022-08-12T23:38:30.760Z,97048.53
2022-08-12T23:41:05.701Z,97044.84
2022-08-12T23:43:39.076Z,97044.66
2022-08-12T23:46:11.073Z,97040.94
2022-08-12T23:48:40.873Z,97041.34
2022-08-12T23:51:21.956Z,97038.81
2022-08-12T23:54:00.266Z,97036.41
2022-08-12T23:56:33.105Z,97042.22
2022-08-12T23:59:03.718Z,97038.25
